Time;durP1;ratioP1;P1;durP2;ratioP2;P2;SDS_P1;SDS_P2;PMS_P1;PMS_P2;Temp;Humidity;BMP_temperature;BMP_pressure;BME280_temperature;BME280_humidity;BME280_pressure;Samples;Min_cycle;Max_cycle;Signal;HPM_P1;HPM_P2
2023/03/24 00:00:12;;;;;;;3.80;1.90;;;;;;;;;;5091261;28;20393;-68
2023/03/24 00:02:40;;;;;;;4.75;1.65;;;;;;;;;;5087830;28;20022;-68
2023/03/24 00:05:16;;;;;;;4.43;1.70;;;;;;;;;;5112763;27;20527;-66
2023/03/24 00:07:42;;;;;;;4.20;1.60;;;;;;;;;;5107919;28;20012;-68
2023/03/24 00:10:09;;;;;;;6.22;2.42;;;;;;;;;;5107968;28;20027;-66
2023/03/24 00:12:37;;;;;;;6.47;2.55;;;;;;;;;;5110808;27;20075;-66
2023/03/24 00:15:04;;;;;;;9.45;2.70;;;;;;;;;;5114482;27;20055;-68
2023/03/24 00:17:29;;;;;;;9.45;3.00;;;;;;;;;;5080552;28;20050;-68
2023/03/24 00:19:55;;;;;;;8.75;2.78;;;;;;;;;;5110789;27;20119;-66
2023/03/24 00:22:20;;;;;;;5.72;2.05;;;;;;;;;;5109897;28;20089;-68
2023/03/24 00:24:45;;;;;;;7.00;2.58;;;;;;;;;;5109411;28;20031;-66
2023/03/24 00:27:12;;;;;;;6.90;2.30;;;;;;;;;;5109451;28;20015;-68
2023/03/24 00:29:37;;;;;;;6.30;2.17;;;;;;;;;;5109498;28;20037;-65
2023/03/24 00:32:03;;;;;;;4.00;2.05;;;;;;;;;;5110399;28;20107;-67
2023/03/24 00:34:28;;;;;;;4.20;2.00;;;;;;;;;;5109763;28;20031;-68
2023/03/24 00:36:53;;;;;;;7.05;2.42;;;;;;;;;;5108744;28;20051;-65
2023/03/24 00:39:19;;;;;;;6.15;2.55;;;;;;;;;;5109534;28;20027;-68
2023/03/24 00:41:46;;;;;;;5.30;2.13;;;;;;;;;;5109608;28;20417;-65
2023/03/24 00:44:16;;;;;;;4.93;2.00;;;;;;;;;;5109787;28;20062;-69
2023/03/24 00:46:45;;;;;;;6.50;2.10;;;;;;;;;;5107162;28;20504;-68
2023/03/24 00:49:11;;;;;;;5.35;2.00;;;;;;;;;;5109088;28;20128;-69
2023/03/24 00:51:40;;;;;;;9.13;1.75;;;;;;;;;;5107944;28;20032;-68
2023/03/24 00:54:08;;;;;;;6.57;2.55;;;;;;;;;;5109599;28;20027;-66
2023/03/24 00:56:34;;;;;;;4.15;2.05;;;;;;;;;;5115244;27;20106;-69
2023/03/24 00:59:00;;;;;;;5.15;2.20;;;;;;;;;;5111522;27;20023;-65
2023/03/24 01:01:28;;;;;;;6.20;2.20;;;;;;;;;;5119924;27;20309;-64
2023/03/24 01:03:55;;;;;;;3.35;2.00;;;;;;;;;;5106033;27;20389;-68
2023/03/24 01:06:21;;;;;;;3.75;2.17;;;;;;;;;;5111937;27;20011;-67
2023/03/24 01:08:48;;;;;;;5.47;2.42;;;;;;;;;;5111086;27;20050;-65
2023/03/24 01:11:15;;;;;;;6.75;2.70;;;;;;;;;;5108973;28;20099;-68
2023/03/24 01:13:41;;;;;;;4.45;2.13;;;;;;;;;;5121650;27;20395;-68
2023/03/24 01:16:06;;;;;;;7.97;2.28;;;;;;;;;;5111131;27;20106;-67
2023/03/24 01:18:33;;;;;;;5.40;2.58;;;;;;;;;;5090169;28;20469;-68
2023/03/24 01:21:00;;;;;;;6.53;2.20;;;;;;;;;;5108375;28;20040;-64
2023/03/24 01:23:25;;;;;;;6.70;2.67;;;;;;;;;;5108829;28;20019;-68
2023/03/24 01:25:51;;;;;;;6.57;2.65;;;;;;;;;;5108531;28;20023;-68
2023/03/24 01:28:20;;;;;;;6.38;2.50;;;;;;;;;;5109353;28;20095;-65
2023/03/24 01:30:45;;;;;;;;;;;;;;;;;;5108810;28;20019;-64
2023/03/24 01:33:11;;;;;;;6.50;2.47;;;;;;;;;;5108757;28;19999;-68
2023/03/24 01:35:36;;;;;;;6.25;2.45;;;;;;;;;;5108026;28;20578;-65
2023/03/24 01:38:06;;;;;;;5.50;2.40;;;;;;;;;;5107407;28;20481;-66
2023/03/24 01:40:32;;;;;;;7.55;3.10;;;;;;;;;;5108058;28;20023;-66
2023/03/24 01:42:57;;;;;;;6.20;2.83;;;;;;;;;;5108693;28;20040;-65
2023/03/24 01:45:38;;;;;;;7.65;3.10;;;;;;;;;;5108197;28;20043;-68
2023/03/24 01:48:08;;;;;;;5.60;2.58;;;;;;;;;;5095401;28;20103;-67
2023/03/24 01:50:33;;;;;;;17.48;2.90;;;;;;;;;;5106021;28;20389;-67
2023/03/24 01:53:00;;;;;;;5.40;2.40;;;;;;;;;;5107776;28;20015;-65
2023/03/24 01:55:25;;;;;;;5.25;2.58;;;;;;;;;;5107878;28;20046;-67
2023/03/24 01:57:52;;;;;;;5.22;2.20;;;;;;;;;;5107013;28;20016;-66
2023/03/24 02:00:19;;;;;;;12.40;3.20;;;;;;;;;;5108008;28;20015;-67
2023/03/24 02:02:48;;;;;;;6.40;2.60;;;;;;;;;;5107437;28;20362;-66
2023/03/24 02:05:13;;;;;;;5.28;2.83;;;;;;;;;;5096839;28;20107;-65
2023/03/24 02:07:42;;;;;;;5.78;2.80;;;;;;;;;;5106614;28;20143;-65
2023/03/24 02:10:10;;;;;;;6.45;3.00;;;;;;;;;;5097190;28;20453;-67
2023/03/24 02:12:35;;;;;;;6.88;3.22;;;;;;;;;;5107968;28;20042;-67
2023/03/24 02:15:02;;;;;;;9.65;3.42;;;;;;;;;;5108237;28;20373;-67
2023/03/24 02:17:32;;;;;;;6.13;3.20;;;;;;;;;;5088673;28;20012;-68
2023/03/24 02:20:11;;;;;;;7.15;3.17;;;;;;;;;;5107537;28;20019;-67
2023/03/24 02:23:01;;;;;;;8.73;3.22;;;;;;;;;;5107394;28;20016;-66
2023/03/24 02:25:46;;;;;;;7.68;3.10;;;;;;;;;;5107249;28;20016;-66
2023/03/24 02:28:14;;;;;;;5.63;3.05;;;;;;;;;;5106944;28;20716;-65
2023/03/24 02:30:52;;;;;;;5.97;3.10;;;;;;;;;;5107712;28;20023;-68
2023/03/24 02:33:32;;;;;;;7.30;3.22;;;;;;;;;;5107493;28;20038;-68
2023/03/24 02:36:16;;;;;;;6.35;2.92;;;;;;;;;;5107167;28;20046;-67
2023/03/24 02:38:56;;;;;;;5.43;2.92;;;;;;;;;;5107055;28;20153;-69
2023/03/24 02:41:21;;;;;;;6.03;3.00;;;;;;;;;;5107312;28;20024;-68
2023/03/24 02:43:55;;;;;;;8.82;3.20;;;;;;;;;;5107884;28;20425;-64
2023/03/24 02:46:21;;;;;;;8.73;3.67;;;;;;;;;;5106664;28;20023;-67
2023/03/24 02:48:55;;;;;;;8.77;3.38;;;;;;;;;;5107884;28;20020;-67
2023/03/24 02:51:28;;;;;;;7.03;3.33;;;;;;;;;;5104835;28;20020;-66
2023/03/24 02:54:00;;;;;;;7.55;3.47;;;;;;;;;;5107795;28;20454;-68
2023/03/24 02:56:31;;;;;;;7.50;3.60;;;;;;;;;;5088063;28;20557;-69
2023/03/24 02:59:05;;;;;;;10.35;3.60;;;;;;;;;;5107872;28;20020;-66
2023/03/24 03:01:39;;;;;;;6.60;2.95;;;;;;;;;;5107236;28;20020;-68
2023/03/24 03:04:17;;;;;;;6.35;3.22;;;;;;;;;;5096538;28;20024;-65
2023/03/24 03:06:43;;;;;;;6.53;3.22;;;;;;;;;;5092748;28;20024;-69
2023/03/24 03:09:14;;;;;;;11.10;3.47;;;;;;;;;;5108620;28;20020;-68
2023/03/24 03:11:41;;;;;;;6.70;3.20;;;;;;;;;;5111040;28;20027;-68
2023/03/24 03:14:09;;;;;;;15.30;3.38;;;;;;;;;;5111244;28;20077;-67
2023/03/24 03:16:47;;;;;;;8.90;3.78;;;;;;;;;;5109930;28;20034;-66
2023/03/24 03:19:23;;;;;;;7.93;3.00;;;;;;;;;;5111214;28;20104;-67
2023/03/24 03:21:49;;;;;;;5.75;3.17;;;;;;;;;;5110597;28;20756;-65
2023/03/24 03:24:25;;;;;;;9.55;3.67;;;;;;;;;;5111008;28;20016;-69
2023/03/24 03:26:51;;;;;;;7.10;3.47;;;;;;;;;;5106040;28;20438;-65
2023/03/24 03:29:20;;;;;;;5.55;3.00;;;;;;;;;;5092597;28;20031;-68
2023/03/24 03:31:52;;;;;;;6.93;3.15;;;;;;;;;;5110544;28;20022;-68
2023/03/24 03:34:36;;;;;;;7.72;2.65;;;;;;;;;;5097765;28;20034;-67
2023/03/24 03:37:04;;;;;;;6.07;3.10;;;;;;;;;;5109855;28;20042;-67
2023/03/24 03:39:32;;;;;;;8.57;3.33;;;;;;;;;;5110703;28;20451;-66
2023/03/24 03:41:57;;;;;;;7.85;3.22;;;;;;;;;;5110846;28;20035;-66
2023/03/24 03:44:23;;;;;;;7.07;2.70;;;;;;;;;;5110910;28;20103;-65
2023/03/24 03:46:48;;;;;;;8.10;3.22;;;;;;;;;;5109326;28;20150;-68
2023/03/24 03:49:13;;;;;;;9.55;3.03;;;;;;;;;;5110763;28;20023;-65
2023/03/24 03:51:39;;;;;;;10.57;3.40;;;;;;;;;;5107644;28;20031;-68
2023/03/24 03:54:07;;;;;;;7.40;3.00;;;;;;;;;;5110451;28;20441;-67
2023/03/24 03:56:33;;;;;;;8.70;3.03;;;;;;;;;;5109380;28;20128;-65
2023/03/24 03:58:58;;;;;;;4.78;2.60;;;;;;;;;;5110732;28;20042;-66
2023/03/24 04:01:26;;;;;;;8.95;4.15;;;;;;;;;;5109865;28;20422;-65
2023/03/24 04:04:19;;;;;;;6.97;3.38;;;;;;;;;;5100631;28;20035;-67
2023/03/24 04:06:56;;;;;;;8.98;3.22;;;;;;;;;;5065251;28;20402;-68
2023/03/24 04:09:24;;;;;;;5.38;2.83;;;;;;;;;;5110001;28;20461;-65
2023/03/24 04:11:52;;;;;;;7.03;3.20;;;;;;;;;;5110453;28;20023;-65
2023/03/24 04:14:18;;;;;;;6.53;2.90;;;;;;;;;;5110199;28;20031;-66
2023/03/24 04:17:05;;;;;;;9.15;3.55;;;;;;;;;;5091099;28;20031;-68
2023/03/24 04:19:31;;;;;;;7.40;3.25;;;;;;;;;;5109611;28;20034;-67
2023/03/24 04:21:57;;;;;;;6.80;3.10;;;;;;;;;;5109192;28;20019;-66
2023/03/24 04:24:28;;;;;;;7.47;3.60;;;;;;;;;;5109227;28;20125;-64
2023/03/24 04:26:59;;;;;;;8.25;3.88;;;;;;;;;;5105198;28;20020;-66
2023/03/24 04:29:51;;;;;;;8.32;3.75;;;;;;;;;;5109660;28;20012;-67
2023/03/24 04:32:19;;;;;;;8.80;4.10;;;;;;;;;;5096950;27;20030;-65
2023/03/24 04:35:05;;;;;;;6.97;3.70;;;;;;;;;;5109933;28;20031;-66
2023/03/24 04:37:36;;;;;;;12.73;4.55;;;;;;;;;;5096126;28;20248;-66
2023/03/24 04:40:04;;;;;;;8.25;3.83;;;;;;;;;;5109340;28;20034;-67
2023/03/24 04:42:34;;;;;;;9.95;4.13;;;;;;;;;;5109625;28;20106;-64
2023/03/24 04:45:01;;;;;;;6.35;3.47;;;;;;;;;;5109569;28;20038;-67
2023/03/24 04:47:28;;;;;;;7.28;3.58;;;;;;;;;;5108256;28;20078;-68
2023/03/24 04:50:00;;;;;;;6.65;3.20;;;;;;;;;;5107076;28;20020;-67
2023/03/24 04:52:26;;;;;;;6.75;3.15;;;;;;;;;;5109090;28;20104;-65
2023/03/24 04:54:51;;;;;;;6.30;3.33;;;;;;;;;;5109196;28;20034;-65
2023/03/24 04:57:17;;;;;;;6.55;2.60;;;;;;;;;;5109222;28;20024;-67
2023/03/24 04:59:42;;;;;;;7.43;3.38;;;;;;;;;;5109077;28;20024;-65
2023/03/24 05:02:07;;;;;;;13.77;3.63;;;;;;;;;;5081496;28;20024;-68
2023/03/24 05:04:35;;;;;;;7.68;3.15;;;;;;;;;;5099141;27;20508;-66
2023/03/24 05:07:01;;;;;;;5.82;2.80;;;;;;;;;;5105230;28;20078;-65
2023/03/24 05:09:26;;;;;;;7.20;3.30;;;;;;;;;;5106515;28;20079;-67
2023/03/24 05:11:51;;;;;;;8.43;3.33;;;;;;;;;;5098529;28;20026;-64
2023/03/24 05:14:17;;;;;;;5.13;2.60;;;;;;;;;;5108082;28;20076;-67
2023/03/24 05:16:42;;;;;;;4.70;2.50;;;;;;;;;;5107711;27;20027;-65
2023/03/24 05:19:08;;;;;;;6.25;3.13;;;;;;;;;;5108578;28;20028;-67
2023/03/24 05:21:33;;;;;;;6.53;2.50;;;;;;;;;;5106851;28;20361;-67
2023/03/24 05:23:58;;;;;;;7.78;2.85;;;;;;;;;;5108500;28;20430;-66
2023/03/24 05:26:25;;;;;;;5.90;3.05;;;;;;;;;;5104122;28;20020;-64
2023/03/24 05:28:50;;;;;;;5.63;3.17;;;;;;;;;;5106061;28;20155;-64
2023/03/24 05:31:15;;;;;;;7.10;2.85;;;;;;;;;;5108848;27;20543;-69
2023/03/24 05:33:41;;;;;;;7.18;3.08;;;;;;;;;;5108276;28;20011;-66
2023/03/24 05:36:06;;;;;;;8.70;2.83;;;;;;;;;;5107709;28;20564;-65
2023/03/24 05:38:31;;;;;;;7.57;3.08;;;;;;;;;;5107758;28;20080;-65
2023/03/24 05:40:57;;;;;;;6.05;2.72;;;;;;;;;;5088817;28;20131;-70
2023/03/24 05:43:23;;;;;;;6.13;2.90;;;;;;;;;;5122411;27;20027;-65
2023/03/24 05:45:48;;;;;;;6.82;2.70;;;;;;;;;;5108668;28;20503;-69
2023/03/24 05:48:13;;;;;;;6.20;3.25;;;;;;;;;;5107101;28;20098;-67
2023/03/24 05:50:38;;;;;;;7.43;3.30;;;;;;;;;;5110249;27;20098;-70
2023/03/24 05:53:04;;;;;;;6.28;3.03;;;;;;;;;;5106310;28;20034;-67
2023/03/24 05:55:29;;;;;;;8.65;3.60;;;;;;;;;;5101777;28;20099;-65
2023/03/24 05:57:55;;;;;;;8.20;2.75;;;;;;;;;;5113495;27;20062;-68
2023/03/24 06:00:20;;;;;;;6.68;2.55;;;;;;;;;;5106943;27;20038;-65
2023/03/24 06:02:45;;;;;;;5.80;2.33;;;;;;;;;;5110047;27;20425;-69
2023/03/24 06:05:11;;;;;;;5.85;2.75;;;;;;;;;;5116976;27;20520;-68
2023/03/24 06:07:37;;;;;;;5.90;3.17;;;;;;;;;;5113502;27;20393;-69
2023/03/24 06:10:03;;;;;;;8.35;3.38;;;;;;;;;;5110007;28;20030;-66
2023/03/24 06:12:29;;;;;;;6.78;3.30;;;;;;;;;;5108543;28;20023;-66
2023/03/24 06:14:55;;;;;;;7.25;3.05;;;;;;;;;;5108386;28;20027;-67
2023/03/24 06:17:20;;;;;;;7.22;3.67;;;;;;;;;;5107694;28;20027;-67
2023/03/24 06:19:48;;;;;;;9.45;3.90;;;;;;;;;;5107495;28;20180;-68
2023/03/24 06:22:16;;;;;;;5.32;2.72;;;;;;;;;;5107951;28;20024;-68
2023/03/24 06:24:42;;;;;;;6.93;3.20;;;;;;;;;;5107963;28;20076;-66
2023/03/24 06:27:07;;;;;;;7.80;3.15;;;;;;;;;;5106263;28;20064;-68
2023/03/24 06:29:33;;;;;;;6.85;3.05;;;;;;;;;;5107680;28;20475;-67
2023/03/24 06:31:58;;;;;;;8.73;3.13;;;;;;;;;;5107321;28;20119;-66
2023/03/24 06:34:28;;;;;;;7.40;2.85;;;;;;;;;;5106289;28;20309;-67
2023/03/24 06:36:53;;;;;;;8.63;3.38;;;;;;;;;;5106702;28;20413;-67
2023/03/24 06:39:19;;;;;;;10.57;2.92;;;;;;;;;;5107971;28;20124;-64
2023/03/24 06:41:44;;;;;;;5.57;2.72;;;;;;;;;;5108121;28;20020;-68
2023/03/24 06:44:09;;;;;;;5.95;2.75;;;;;;;;;;5110912;28;20413;-66
2023/03/24 06:46:34;;;;;;;6.18;2.85;;;;;;;;;;5111197;28;20498;-69
2023/03/24 06:49:00;;;;;;;13.05;3.08;;;;;;;;;;5112739;28;20027;-66
2023/03/24 06:51:25;;;;;;;8.80;2.92;;;;;;;;;;5109673;28;20046;-68
2023/03/24 06:53:50;;;;;;;11.05;3.20;;;;;;;;;;5112799;28;20458;-70
2023/03/24 06:56:16;;;;;;;6.88;2.70;;;;;;;;;;5112216;28;20016;-68
2023/03/24 06:58:42;;;;;;;4.80;2.60;;;;;;;;;;5111701;28;20080;-67
2023/03/24 07:01:07;;;;;;;6.35;2.80;;;;;;;;;;5111201;28;20086;-66
2023/03/24 07:03:32;;;;;;;5.45;2.45;;;;;;;;;;5106044;28;20103;-66
2023/03/24 07:05:57;;;;;;;4.53;2.20;;;;;;;;;;5111188;28;20106;-65
2023/03/24 07:08:23;;;;;;;5.65;2.67;;;;;;;;;;5110024;27;20062;-69
2023/03/24 07:10:49;;;;;;;7.80;2.35;;;;;;;;;;5111733;28;20390;-71
2023/03/24 07:13:14;;;;;;;6.93;2.60;;;;;;;;;;5112047;28;20149;-67
2023/03/24 07:15:39;;;;;;;6.38;2.20;;;;;;;;;;5112002;28;20094;-68
2023/03/24 07:18:05;;;;;;;9.23;2.85;;;;;;;;;;5110962;28;20108;-68
2023/03/24 07:20:30;;;;;;;6.75;2.90;;;;;;;;;;5111864;28;20043;-69
2023/03/24 07:22:56;;;;;;;6.18;2.65;;;;;;;;;;5111539;28;20015;-69
2023/03/24 07:25:21;;;;;;;3.78;2.10;;;;;;;;;;5111250;28;20015;-68
2023/03/24 07:27:47;;;;;;;8.40;3.08;;;;;;;;;;5122473;22;20049;-68
2023/03/24 07:30:12;;;;;;;10.77;2.90;;;;;;;;;;5100366;28;20014;-69
2023/03/24 07:32:38;;;;;;;6.57;2.80;;;;;;;;;;5113548;28;20030;-69
2023/03/24 07:35:06;;;;;;;5.03;2.40;;;;;;;;;;5112251;28;20011;-71
2023/03/24 07:37:31;;;;;;;6.00;2.42;;;;;;;;;;5098266;28;20095;-68
2023/03/24 07:39:57;;;;;;;7.43;1.92;;;;;;;;;;5112462;28;20098;-68
2023/03/24 07:42:22;;;;;;;4.65;2.28;;;;;;;;;;5098662;28;20106;-68
2023/03/24 07:44:48;;;;;;;4.95;2.10;;;;;;;;;;5111925;28;20022;-69
2023/03/24 07:47:13;;;;;;;5.57;2.53;;;;;;;;;;5111622;28;20016;-70
2023/03/24 07:49:38;;;;;;;5.82;2.20;;;;;;;;;;5111590;28;20120;-68
2023/03/24 07:52:06;;;;;;;5.18;2.15;;;;;;;;;;5096154;28;20099;-69
2023/03/24 07:54:33;;;;;;;4.72;2.50;;;;;;;;;;5105694;28;20026;-70
2023/03/24 07:56:58;;;;;;;4.75;2.00;;;;;;;;;;5110887;28;20051;-70
2023/03/24 07:59:23;;;;;;;5.97;2.28;;;;;;;;;;5106259;28;20070;-70
2023/03/24 08:01:48;;;;;;;6.88;3.63;;;;;;;;;;5111642;28;20026;-70
2023/03/24 08:04:14;;;;;;;4.20;1.77;;;;;;;;;;5090679;28;20020;-70
2023/03/24 08:06:42;;;;;;;5.57;2.30;;;;;;;;;;5108771;28;20020;-68
2023/03/24 08:09:08;;;;;;;7.23;2.17;;;;;;;;;;5111959;28;20055;-67
2023/03/24 08:11:34;;;;;;;5.03;2.20;;;;;;;;;;5111905;28;20051;-68
2023/03/24 08:13:59;;;;;;;3.85;2.00;;;;;;;;;;5111849;28;20051;-69
2023/03/24 08:16:25;;;;;;;5.78;1.90;;;;;;;;;;5093224;28;20515;-69
2023/03/24 08:18:51;;;;;;;5.18;1.80;;;;;;;;;;5111978;28;20031;-68
2023/03/24 08:21:16;;;;;;;5.38;2.00;;;;;;;;;;5111220;28;20023;-67
2023/03/24 08:23:41;;;;;;;4.78;1.98;;;;;;;;;;5111110;28;20031;-69
2023/03/24 08:26:09;;;;;;;6.43;1.95;;;;;;;;;;5111008;28;20103;-68
2023/03/24 08:28:34;;;;;;;5.05;2.00;;;;;;;;;;5104317;28;20051;-67
2023/03/24 08:31:00;;;;;;;4.07;1.73;;;;;;;;;;5111012;28;20019;-71
2023/03/24 08:33:25;;;;;;;4.00;1.63;;;;;;;;;;5111451;28;20027;-70
2023/03/24 08:35:56;;;;;;;6.45;1.70;;;;;;;;;;5093355;28;20035;-67
2023/03/24 08:38:22;;;;;;;3.50;1.55;;;;;;;;;;5110994;28;20061;-68
2023/03/24 08:40:47;;;;;;;5.63;2.08;;;;;;;;;;5111185;28;20140;-68
2023/03/24 08:43:14;;;;;;;3.50;1.60;;;;;;;;;;5111229;28;20613;-69
2023/03/24 08:45:40;;;;;;;7.50;1.70;;;;;;;;;;5111183;28;20020;-69
2023/03/24 08:48:06;;;;;;;6.13;1.65;;;;;;;;;;5110996;28;20098;-68
2023/03/24 08:50:33;;;;;;;4.75;1.60;;;;;;;;;;5103105;28;20047;-70
2023/03/24 08:52:58;;;;;;;2.88;1.48;;;;;;;;;;5097332;28;20027;-69
2023/03/24 08:55:24;;;;;;;2.90;1.42;;;;;;;;;;5110537;28;20033;-70
2023/03/24 08:57:49;;;;;;;5.28;1.55;;;;;;;;;;5109847;28;20024;-69
2023/03/24 09:00:17;;;;;;;2.28;1.23;;;;;;;;;;5092942;28;20542;-70
2023/03/24 09:02:43;;;;;;;3.72;1.40;;;;;;;;;;5110983;28;20007;-69
2023/03/24 09:05:10;;;;;;;2.10;1.20;;;;;;;;;;5098658;28;20633;-68
2023/03/24 09:07:35;;;;;;;3.97;1.42;;;;;;;;;;5108981;28;20502;-68
2023/03/24 09:10:00;;;;;;;2.67;1.40;;;;;;;;;;5110660;28;20020;-70
2023/03/24 09:12:25;;;;;;;2.50;1.40;;;;;;;;;;5110821;28;20504;-69
2023/03/24 09:14:51;;;;;;;2.28;1.38;;;;;;;;;;5110704;28;20106;-69
2023/03/24 09:17:16;;;;;;;3.33;1.20;;;;;;;;;;5110154;28;20156;-67
2023/03/24 09:19:42;;;;;;;2.60;1.20;;;;;;;;;;5110537;28;20035;-71
2023/03/24 09:22:07;;;;;;;2.38;1.30;;;;;;;;;;5110818;28;20012;-68
2023/03/24 09:24:32;;;;;;;3.03;1.30;;;;;;;;;;5110326;28;20469;-69
2023/03/24 09:26:58;;;;;;;2.63;1.30;;;;;;;;;;5105576;28;20394;-69
2023/03/24 09:29:23;;;;;;;1.95;1.20;;;;;;;;;;5104965;28;20012;-69
2023/03/24 09:31:49;;;;;;;3.45;1.20;;;;;;;;;;5103685;28;20098;-70
2023/03/24 09:34:15;;;;;;;2.78;1.13;;;;;;;;;;5111079;28;20213;-70
2023/03/24 09:36:40;;;;;;;5.78;1.33;;;;;;;;;;5109269;28;20039;-70
2023/03/24 09:39:06;;;;;;;1.73;1.00;;;;;;;;;;5110822;28;20023;-67
2023/03/24 09:41:31;;;;;;;3.38;1.30;;;;;;;;;;5109836;28;20020;-69
2023/03/24 09:44:12;;;;;;;1.98;1.25;;;;;;;;;;5109713;28;20026;-69
2023/03/24 09:46:43;;;;;;;4.55;1.48;;;;;;;;;;5109071;28;20015;-69
2023/03/24 09:49:15;;;;;;;2.28;1.20;;;;;;;;;;5110477;28;20096;-70
2023/03/24 09:51:42;;;;;;;2.97;1.15;;;;;;;;;;5094992;28;20028;-68
2023/03/24 09:54:21;;;;;;;3.05;1.20;;;;;;;;;;5101851;28;20031;-69
2023/03/24 09:56:47;;;;;;;2.50;1.20;;;;;;;;;;5109290;28;20019;-69
2023/03/24 09:59:18;;;;;;;3.17;1.17;;;;;;;;;;5109209;28;20019;-70
2023/03/24 10:01:43;;;;;;;7.00;1.30;;;;;;;;;;5109299;28;20024;-69
2023/03/24 10:04:13;;;;;;;2.13;1.20;;;;;;;;;;5109975;28;20023;-69
2023/03/24 10:06:40;;;;;;;4.65;1.10;;;;;;;;;;5107390;28;20108;-69
2023/03/24 10:09:05;;;;;;;3.83;1.30;;;;;;;;;;5091460;28;20528;-69
2023/03/24 10:11:35;;;;;;;7.23;1.50;;;;;;;;;;5109450;28;20103;-66
2023/03/24 10:14:04;;;;;;;2.67;1.30;;;;;;;;;;5110086;28;20262;-70
2023/03/24 10:16:33;;;;;;;1.92;1.02;;;;;;;;;;5109092;28;20031;-69
2023/03/24 10:19:16;;;;;;;1.65;1.20;;;;;;;;;;5109583;28;20031;-70
2023/03/24 10:21:49;;;;;;;4.00;1.50;;;;;;;;;;5108533;28;20636;-68
2023/03/24 10:24:26;;;;;;;2.33;1.20;;;;;;;;;;5110104;28;20019;-69
2023/03/24 10:26:55;;;;;;;3.10;1.35;;;;;;;;;;5090746;28;20133;-69
2023/03/24 10:29:25;;;;;;;2.28;1.17;;;;;;;;;;5095487;28;20069;-71
2023/03/24 10:31:55;;;;;;;2.35;1.23;;;;;;;;;;5102538;28;20103;-67
2023/03/24 10:34:22;;;;;;;2.30;1.20;;;;;;;;;;5109432;28;20035;-68
2023/03/24 10:36:48;;;;;;;5.70;1.50;;;;;;;;;;5107161;28;20098;-69
2023/03/24 10:39:14;;;;;;;4.72;1.40;;;;;;;;;;5108304;28;20090;-70
2023/03/24 10:41:41;;;;;;;2.80;1.33;;;;;;;;;;5109636;28;20019;-69
2023/03/24 10:44:06;;;;;;;4.43;1.20;;;;;;;;;;5108811;28;20020;-70
2023/03/24 10:46:32;;;;;;;6.00;1.20;;;;;;;;;;5107605;28;20123;-67
2023/03/24 10:49:08;;;;;;;2.78;1.42;;;;;;;;;;5109796;28;20095;-68
2023/03/24 10:51:34;;;;;;;2.47;1.13;;;;;;;;;;5107222;28;20627;-69
2023/03/24 10:54:09;;;;;;;6.32;1.20;;;;;;;;;;5090914;28;20020;-67
2023/03/24 10:56:40;;;;;;;1.30;1.00;;;;;;;;;;5107645;28;20120;-69
2023/03/24 10:59:17;;;;;;;10.15;1.08;;;;;;;;;;5108557;28;20073;-68
2023/03/24 11:01:42;;;;;;;1.98;1.00;;;;;;;;;;5109079;28;20020;-68
2023/03/24 11:04:11;;;;;;;1.83;0.90;;;;;;;;;;5109863;28;20030;-69
2023/03/24 11:06:36;;;;;;;5.60;0.93;;;;;;;;;;5107287;28;20058;-69
2023/03/24 11:09:09;;;;;;;2.70;1.15;;;;;;;;;;5109477;28;20123;-69
2023/03/24 11:11:34;;;;;;;2.00;0.98;;;;;;;;;;5095541;28;20429;-69
2023/03/24 11:14:01;;;;;;;1.50;0.70;;;;;;;;;;5109098;28;20050;-69
2023/03/24 11:16:30;;;;;;;1.67;0.82;;;;;;;;;;5109005;28;20088;-68
2023/03/24 11:18:56;;;;;;;2.70;1.02;;;;;;;;;;5109312;28;20051;-69
2023/03/24 11:21:21;;;;;;;5.05;0.85;;;;;;;;;;5108110;28;20050;-71
2023/03/24 11:23:47;;;;;;;5.43;0.80;;;;;;;;;;5105528;28;20008;-68
2023/03/24 11:26:12;;;;;;;3.25;0.98;;;;;;;;;;5097513;28;20438;-69
2023/03/24 11:28:38;;;;;;;5.17;0.90;;;;;;;;;;5103650;28;20064;-69
2023/03/24 11:31:06;;;;;;;1.05;0.80;;;;;;;;;;5110928;28;20797;-69
2023/03/24 11:33:33;;;;;;;2.20;0.67;;;;;;;;;;5112344;28;20107;-70
2023/03/24 11:36:00;;;;;;;2.72;0.85;;;;;;;;;;5093182;28;20031;-69
2023/03/24 11:38:32;;;;;;;1.95;0.68;;;;;;;;;;5110972;28;20015;-68
2023/03/24 11:41:00;;;;;;;3.50;0.70;;;;;;;;;;5112025;28;20054;-69
2023/03/24 11:43:26;;;;;;;2.90;0.90;;;;;;;;;;5112800;28;20420;-69
2023/03/24 11:45:57;;;;;;;2.50;1.05;;;;;;;;;;5111308;28;20016;-70
2023/03/24 11:48:29;;;;;;;1.80;0.82;;;;;;;;;;5111651;28;20012;-68
2023/03/24 11:50:55;;;;;;;4.43;0.90;;;;;;;;;;5111527;28;20050;-70
2023/03/24 11:53:22;;;;;;;1.45;0.63;;;;;;;;;;5111366;28;20543;-68
2023/03/24 11:55:48;;;;;;;2.30;0.88;;;;;;;;;;5111754;28;20027;-70
2023/03/24 11:58:26;;;;;;;3.63;1.27;;;;;;;;;;5110801;28;20117;-70
2023/03/24 12:01:14;;;;;;;2.03;1.00;;;;;;;;;;5108355;28;20035;-69
2023/03/24 12:03:49;;;;;;;1.85;0.90;;;;;;;;;;5108297;28;20102;-70
2023/03/24 12:06:14;;;;;;;2.22;1.00;;;;;;;;;;5110828;28;20040;-68
2023/03/24 12:08:40;;;;;;;3.40;1.10;;;;;;;;;;5111712;28;20047;-67
2023/03/24 12:11:07;;;;;;;1.98;0.90;;;;;;;;;;5112386;28;20019;-68
2023/03/24 12:13:37;;;;;;;4.45;1.35;;;;;;;;;;5109020;28;20015;-66
2023/03/24 12:16:06;;;;;;;2.65;0.98;;;;;;;;;;5108894;28;20030;-69
2023/03/24 12:18:37;;;;;;;1.90;1.05;;;;;;;;;;5111602;28;20076;-68
2023/03/24 12:21:06;;;;;;;2.40;0.90;;;;;;;;;;5111356;28;20043;-69
2023/03/24 12:23:37;;;;;;;6.22;1.00;;;;;;;;;;5111124;28;20027;-69
2023/03/24 12:26:15;;;;;;;2.00;1.00;;;;;;;;;;5110597;28;20060;-71
2023/03/24 12:28:59;;;;;;;3.42;1.00;;;;;;;;;;5101955;28;20438;-67
2023/03/24 12:31:33;;;;;;;1.42;0.70;;;;;;;;;;5109902;28;20068;-67
2023/03/24 12:34:13;;;;;;;2.70;0.77;;;;;;;;;;5111760;28;20024;-69
2023/03/24 12:36:44;;;;;;;2.65;1.00;;;;;;;;;;5108645;28;20027;-69
2023/03/24 12:39:16;;;;;;;1.65;0.75;;;;;;;;;;5109492;28;20062;-69
2023/03/24 12:41:49;;;;;;;2.70;0.73;;;;;;;;;;5103614;28;20023;-69
2023/03/24 12:44:23;;;;;;;2.35;0.90;;;;;;;;;;5106920;28;20023;-68
2023/03/24 12:46:55;;;;;;;3.45;1.52;;;;;;;;;;5103710;28;20433;-67
2023/03/24 12:49:26;;;;;;;3.75;0.85;;;;;;;;;;5110085;28;20084;-71
2023/03/24 12:52:18;;;;;;;2.72;0.90;;;;;;;;;;5110530;28;20023;-71
2023/03/24 12:54:46;;;;;;;2.08;0.88;;;;;;;;;;5104267;28;20072;-70
2023/03/24 12:57:13;;;;;;;8.35;1.35;;;;;;;;;;5109660;28;20015;-72
2023/03/24 12:59:41;;;;;;;3.47;1.23;;;;;;;;;;5110637;28;20485;-71
2023/03/24 13:02:25;;;;;;;2.30;0.73;;;;;;;;;;5110398;28;20452;-72
2023/03/24 13:04:52;;;;;;;4.50;1.13;;;;;;;;;;5110035;28;20117;-70
2023/03/24 13:07:20;;;;;;;1.70;1.00;;;;;;;;;;5109417;28;20471;-67
2023/03/24 13:09:48;;;;;;;4.60;1.20;;;;;;;;;;5109488;28;20026;-68
2023/03/24 13:12:13;;;;;;;2.00;1.08;;;;;;;;;;5110671;28;20020;-70
2023/03/24 13:14:48;;;;;;;4.97;1.08;;;;;;;;;;5110495;28;20655;-69
2023/03/24 13:17:20;;;;;;;2.05;1.00;;;;;;;;;;5109723;28;20020;-70
2023/03/24 13:19:45;;;;;;;3.28;1.33;;;;;;;;;;5110329;28;20134;-71
2023/03/24 13:22:14;;;;;;;2.83;1.00;;;;;;;;;;5110379;28;20027;-72
2023/03/24 13:24:39;;;;;;;2.67;1.20;;;;;;;;;;5109394;28;20385;-71
2023/03/24 13:27:19;;;;;;;3.47;1.30;;;;;;;;;;5119896;22;20028;-67
2023/03/24 13:29:53;;;;;;;4.75;1.10;;;;;;;;;;5088999;28;20473;-68
2023/03/24 13:32:19;;;;;;;3.05;1.05;;;;;;;;;;5090211;28;20655;-68
2023/03/24 13:34:47;;;;;;;2.42;1.15;;;;;;;;;;5088438;28;20139;-68
2023/03/24 13:37:18;;;;;;;5.25;1.30;;;;;;;;;;5087249;28;20015;-66
2023/03/24 13:39:44;;;;;;;3.45;1.45;;;;;;;;;;5055527;28;20031;-68
2023/03/24 13:42:28;;;;;;;3.83;1.17;;;;;;;;;;5071086;28;20028;-66
2023/03/24 13:44:53;;;;;;;5.15;1.33;;;;;;;;;;5082314;28;20027;-68
2023/03/24 13:47:18;;;;;;;3.90;1.35;;;;;;;;;;5086700;28;20043;-67
2023/03/24 13:50:00;;;;;;;4.43;1.27;;;;;;;;;;5084174;28;20031;-68
2023/03/24 13:52:26;;;;;;;4.28;1.45;;;;;;;;;;5081579;28;20020;-68
2023/03/24 13:54:54;;;;;;;7.18;1.48;;;;;;;;;;5067336;28;20522;-69
2023/03/24 13:57:22;;;;;;;3.33;1.10;;;;;;;;;;5091862;28;20634;-69
2023/03/24 14:00:04;;;;;;;5.07;1.60;;;;;;;;;;5069342;28;20031;-67
2023/03/24 14:02:30;;;;;;;4.47;1.20;;;;;;;;;;5079273;28;20146;-67
2023/03/24 14:05:09;;;;;;;3.40;1.40;;;;;;;;;;5086068;28;20027;-68
2023/03/24 14:07:38;;;;;;;4.40;1.80;;;;;;;;;;5060707;28;20031;-68
2023/03/24 14:10:15;;;;;;;3.22;1.20;;;;;;;;;;5087324;28;20016;-66
2023/03/24 14:12:58;;;;;;;6.03;1.50;;;;;;;;;;5081577;28;20032;-65
2023/03/24 14:15:27;;;;;;;5.15;1.35;;;;;;;;;;5077821;28;20611;-67
2023/03/24 14:17:52;;;;;;;;;;;;;;;;;;5078308;28;20530;-66
2023/03/24 14:20:25;;;;;;;5.63;1.13;;;;;;;;;;5079751;28;20003;-69
2023/03/24 14:22:51;;;;;;;2.22;1.30;;;;;;;;;;5055082;28;20264;-69
2023/03/24 14:25:17;;;;;;;7.00;1.20;;;;;;;;;;5078778;28;20486;-67
2023/03/24 14:27:43;;;;;;;3.90;1.23;;;;;;;;;;5081902;28;20126;-68
2023/03/24 14:30:27;;;;;;;5.43;1.58;;;;;;;;;;5083315;28;20328;-67
2023/03/24 14:32:55;;;;;;;1.45;0.93;;;;;;;;;;5086635;28;20020;-67
2023/03/24 14:35:34;;;;;;;1.85;0.82;;;;;;;;;;5100454;28;20035;-68
2023/03/24 14:38:03;;;;;;;2.15;0.73;;;;;;;;;;5101144;28;20104;-69
2023/03/24 14:40:37;;;;;;;3.38;1.15;;;;;;;;;;5092856;28;20079;-66
2023/03/24 14:43:35;;;;;;;2.45;1.08;;;;;;;;;;5071485;28;20016;-68
2023/03/24 14:46:05;;;;;;;8.43;1.08;;;;;;;;;;5040730;28;20086;-68
2023/03/24 14:48:32;;;;;;;1.42;0.80;;;;;;;;;;5091517;28;20024;-69
2023/03/24 14:50:59;;;;;;;1.50;0.80;;;;;;;;;;5089214;28;20145;-67